createdAt,value
2018-10-12T00:00:17.111Z,96.70
2018-10-12T00:01:17.136Z,96.18
2018-10-12T00:02:17.107Z,96.08
2018-10-12T00:03:17.107Z,96.18
2018-10-12T00:04:17.107Z,95.41
2018-10-12T00:05:17.108Z,95.41
2018-10-12T00:06:17.132Z,95.12
2018-10-12T00:07:17.109Z,95.31
2018-10-12T00:08:17.108Z,94.74
2018-10-12T00:09:17.108Z,94.93
2018-10-12T00:10:17.104Z,95.12
2018-10-12T00:11:17.132Z,94.26
2018-10-12T00:12:17.102Z,94.45
2018-10-12T00:13:17.107Z,94.07
2018-10-12T00:14:17.101Z,94.07
2018-10-12T00:15:17.105Z,93.88
2018-10-12T00:16:17.131Z,93.88
2018-10-12T00:17:17.108Z,93.69
2018-10-12T00:18:17.098Z,93.69
2018-10-12T00:19:17.099Z,93.98
2018-10-12T00:20:17.104Z,93.88
2018-10-12T00:21:17.136Z,93.88
2018-10-12T00:22:17.105Z,93.98
2018-10-12T00:23:17.102Z,93.69
2018-10-12T00:24:17.134Z,93.78
2018-10-12T00:25:17.103Z,94.17
2018-10-12T00:26:17.102Z,93.98
2018-10-12T00:27:17.129Z,94.55
2018-10-12T00:28:17.103Z,94.45
2018-10-12T00:29:17.104Z,94.17
2018-10-12T00:30:17.103Z,94.26
2018-10-12T00:31:17.103Z,94.64
2018-10-12T00:32:17.128Z,94.35
2018-10-12T00:33:17.095Z,94.55
2018-10-12T00:34:17.100Z,94.35
2018-10-12T00:35:17.101Z,94.45
2018-10-12T00:36:17.102Z,94.45
2018-10-12T00:37:17.137Z,94.55
2018-10-12T00:38:17.107Z,94.45
2018-10-12T00:39:17.101Z,94.26
2018-10-12T00:40:17.105Z,94.45
2018-10-12T00:41:17.137Z,94.55
2018-10-12T00:42:17.101Z,94.74
2018-10-12T00:43:17.108Z,94.45
2018-10-12T00:44:17.105Z,93.98
2018-10-12T00:45:17.101Z,94.64
2018-10-12T00:46:17.130Z,94.17
2018-10-12T00:47:17.102Z,93.21
2018-10-12T00:48:17.107Z,93.49
2018-10-12T00:49:17.106Z,93.21
2018-10-12T00:50:17.100Z,93.59
2018-10-12T00:51:17.130Z,93.21
2018-10-12T00:52:17.230Z,93.59
2018-10-12T00:53:17.104Z,93.30
2018-10-12T00:54:17.099Z,93.49
2018-10-12T00:55:17.104Z,93.49
2018-10-12T00:56:17.127Z,93.30
2018-10-12T00:57:17.103Z,93.69
2018-10-12T00:58:17.096Z,93.40
2018-10-12T00:59:17.104Z,93.40
2018-10-12T01:00:17.109Z,92.63
2018-10-12T01:01:17.127Z,92.92
2018-10-12T01:02:17.099Z,93.69
2018-10-12T01:03:17.110Z,93.40
2018-10-12T01:04:17.110Z,93.88
2018-10-12T01:05:17.104Z,93.59
2018-10-12T01:06:17.133Z,93.69
2018-10-12T01:07:17.105Z,93.49
2018-10-12T01:08:17.101Z,93.11
2018-10-12T01:09:17.096Z,93.69
2018-10-12T01:10:17.105Z,93.69
2018-10-12T01:11:17.130Z,93.78
2018-10-12T01:12:17.154Z,93.49
2018-10-12T01:13:17.098Z,93.49
2018-10-12T01:14:17.102Z,92.92
2018-10-12T01:15:17.129Z,92.63
2018-10-12T01:16:17.115Z,93.11
2018-10-12T01:17:17.126Z,93.69
2018-10-12T01:18:17.104Z,93.69
2018-10-12T01:19:17.104Z,93.40
2018-10-12T01:20:17.103Z,93.02
2018-10-12T01:21:17.102Z,92.82
2018-10-12T01:22:17.127Z,92.82
2018-10-12T01:23:17.102Z,92.82
2018-10-12T01:24:17.104Z,93.11
2018-10-12T01:25:17.104Z,93.21
2018-10-12T01:26:17.103Z,93.11
2018-10-12T01:27:17.135Z,92.92
2018-10-12T01:28:17.103Z,93.40
2018-10-12T01:29:17.103Z,93.88
2018-10-12T01:30:17.103Z,93.30
2018-10-12T01:31:17.100Z,93.59
2018-10-12T01:32:17.131Z,93.49
2018-10-12T01:33:17.104Z,93.21
2018-10-12T01:34:17.100Z,93.21
2018-10-12T01:35:17.132Z,93.11
2018-10-12T01:36:17.105Z,93.11
2018-10-12T01:37:17.132Z,92.44
2018-10-12T01:38:17.105Z,93.02
2018-10-12T01:39:17.105Z,92.63
2018-10-12T01:40:17.105Z,92.35
2018-10-12T01:41:17.132Z,92.92
2018-10-12T01:42:17.104Z,91.77
2018-10-12T01:43:17.107Z,92.44
2018-10-12T01:44:17.105Z,92.63
2018-10-12T01:45:17.106Z,93.40
2018-10-12T01:46:17.130Z,94.12
2018-10-12T01:47:17.108Z,93.49
2018-10-12T01:48:17.105Z,94.07
2018-10-12T01:49:17.105Z,94.21
2018-10-12T01:50:17.110Z,94.98
2018-10-12T01:51:17.134Z,95.17
2018-10-12T01:52:17.113Z,95.27
2018-10-12T01:53:17.106Z,95.27
2018-10-12T01:54:17.103Z,95.07
2018-10-12T01:55:17.106Z,96.03
2018-10-12T01:56:17.135Z,95.84
2018-10-12T01:57:17.104Z,94.98
2018-10-12T01:58:17.107Z,95.07
2018-10-12T01:59:17.108Z,94.02
2018-10-12T02:00:17.108Z,94.60
2018-10-12T02:01:17.135Z,94.89
2018-10-12T02:02:17.113Z,95.46
2018-10-12T02:03:17.110Z,95.36
2018-10-12T02:04:17.108Z,95.56
2018-10-12T02:05:17.110Z,95.94
2018-10-12T02:06:17.136Z,96.03
2018-10-12T02:07:17.109Z,95.75
2018-10-12T02:08:17.109Z,95.07
2018-10-12T02:09:17.109Z,96.03
2018-10-12T02:10:17.104Z,95.46
2018-10-12T02:11:17.138Z,95.84
2018-10-12T02:12:17.105Z,95.75
2018-10-12T02:13:17.110Z,95.17
2018-10-12T02:14:17.110Z,96.99
2018-10-12T02:15:17.107Z,96.32
2018-10-12T02:16:17.139Z,95.65
2018-10-12T02:17:17.111Z,93.74
2018-10-12T02:18:17.106Z,93.64
2018-10-12T02:19:17.106Z,92.97
2018-10-12T02:20:17.106Z,92.73
2018-10-12T02:21:17.135Z,92.92
2018-10-12T02:22:17.107Z,92.54
2018-10-12T02:23:17.117Z,92.40
2018-10-12T02:24:17.106Z,92.35
2018-10-12T02:25:17.108Z,91.58
2018-10-12T02:26:17.136Z,91.29
2018-10-12T02:27:17.107Z,91.96
2018-10-12T02:28:17.107Z,93.21
2018-10-12T02:29:17.104Z,91.96
2018-10-12T02:30:17.108Z,92.06
2018-10-12T02:31:17.138Z,91.96
2018-10-12T02:32:17.108Z,92.25
2018-10-12T02:33:17.111Z,92.25
2018-10-12T02:34:17.108Z,91.53
2018-10-12T02:35:17.108Z,91.29
2018-10-12T02:36:17.136Z,91.00
2018-10-12T02:37:17.105Z,90.91
2018-10-12T02:38:17.108Z,90.43
2018-10-12T02:39:17.108Z,91.19
2018-10-12T02:40:17.108Z,91.77
2018-10-12T02:41:17.137Z,92.78
2018-10-12T02:42:17.111Z,94.50
2018-10-12T02:43:17.111Z,94.12
2018-10-12T02:44:17.118Z,93.45
2018-10-12T02:45:17.106Z,92.40
2018-10-12T02:46:17.140Z,92.30
2018-10-12T02:47:17.107Z,91.05
2018-10-12T02:48:17.114Z,91.10
2018-10-12T02:49:17.114Z,91.10
2018-10-12T02:50:17.112Z,91.77
2018-10-12T02:51:17.134Z,91.58
2018-10-12T02:52:17.111Z,90.91
2018-10-12T02:53:17.108Z,92.06
2018-10-12T02:54:17.099Z,93.49
2018-10-12T02:55:17.099Z,91.96
2018-10-12T02:56:17.119Z,91.58
2018-10-12T02:57:17.104Z,89.66
2018-10-12T02:58:17.096Z,91.19
2018-10-12T02:59:17.096Z,90.91
2018-10-12T03:00:17.100Z,92.15
2018-10-12T03:01:17.129Z,90.43
2018-10-12T03:02:17.128Z,91.29
2018-10-12T03:03:17.101Z,91.96
2018-10-12T03:04:17.098Z,92.15
2018-10-12T03:05:17.100Z,92.01
2018-10-12T03:06:17.105Z,92.01
2018-10-12T03:07:17.129Z,92.97
2018-10-12T03:08:17.108Z,91.00
2018-10-12T03:09:17.107Z,90.05
2018-10-12T03:10:17.102Z,91.58
2018-10-12T03:11:17.105Z,91.49
2018-10-12T03:12:17.133Z,90.81
2018-10-12T03:13:17.104Z,90.43
2018-10-12T03:14:17.102Z,89.09
2018-10-12T03:15:17.098Z,89.57
2018-10-12T03:16:17.100Z,90.23
2018-10-12T03:17:17.131Z,90.33
2018-10-12T03:18:17.106Z,90.91
2018-10-12T03:19:17.097Z,91.96
2018-10-12T03:20:17.104Z,91.39
2018-10-12T03:21:17.105Z,91.29
2018-10-12T03:22:17.137Z,92.35
2018-10-12T03:23:17.111Z,91.29
2018-10-12T03:24:17.111Z,90.91
2018-10-12T03:25:17.111Z,92.63
2018-10-12T03:26:17.108Z,93.59
2018-10-12T03:27:17.131Z,91.86
2018-10-12T03:28:17.108Z,93.02
2018-10-12T03:29:17.107Z,90.53
2018-10-12T03:30:17.106Z,90.53
2018-10-12T03:31:17.140Z,90.33
2018-10-12T03:32:17.287Z,90.53
2018-10-12T03:33:17.111Z,90.14
2018-10-12T03:34:17.107Z,88.61
2018-10-12T03:35:17.111Z,89.76
2018-10-12T03:36:17.104Z,90.43
2018-10-12T03:37:17.196Z,89.57
2018-10-12T03:38:17.108Z,89.57
2018-10-12T03:39:17.106Z,87.94
2018-10-12T03:40:17.115Z,88.27
2018-10-12T03:41:17.108Z,87.98
2018-10-12T03:42:17.140Z,88.56
2018-10-12T03:43:17.105Z,88.46
2018-10-12T03:44:17.117Z,88.56
2018-10-12T03:45:17.114Z,89.57
2018-10-12T03:46:17.116Z,89.95
2018-10-12T03:47:17.142Z,91.29
2018-10-12T03:48:17.109Z,91.00
2018-10-12T03:49:17.109Z,91.10
2018-10-12T03:50:17.110Z,91.96
2018-10-12T03:51:17.115Z,92.49
2018-10-12T03:52:17.141Z,93.35
2018-10-12T03:53:17.114Z,94.50
2018-10-12T03:54:17.117Z,94.98
2018-10-12T03:55:17.118Z,94.89
2018-10-12T03:56:17.115Z,94.69
2018-10-12T03:57:17.148Z,96.13
2018-10-12T03:58:17.118Z,95.94
2018-10-12T03:59:17.114Z,94.89
2018-10-12T04:00:17.112Z,95.61
2018-10-12T04:01:17.112Z,95.70
2018-10-12T04:02:17.144Z,94.89
2018-10-12T04:03:17.116Z,96.27
2018-10-12T04:04:17.117Z,96.18
2018-10-12T04:05:17.121Z,96.08
2018-10-12T04:06:17.120Z,96.27
2018-10-12T04:07:17.150Z,96.66
2018-10-12T04:08:17.122Z,95.89
2018-10-12T04:09:17.126Z,97.71
2018-10-12T04:10:17.118Z,97.33
2018-10-12T04:11:17.126Z,96.56
2018-10-12T04:12:17.151Z,96.84
2018-10-12T04:13:17.123Z,95.89
2018-10-12T04:14:17.122Z,95.65
2018-10-12T04:15:17.126Z,94.60
2018-10-12T04:16:17.121Z,94.98
2018-10-12T04:17:17.155Z,95.51
2018-10-12T04:18:17.123Z,95.31
2018-10-12T04:19:17.117Z,95.51
2018-10-12T04:20:17.123Z,96.66
2018-10-12T04:21:17.118Z,96.18
2018-10-12T04:22:17.153Z,96.08
2018-10-12T04:23:17.127Z,95.79
2018-10-12T04:24:17.123Z,95.98
2018-10-12T04:25:17.124Z,95.61
2018-10-12T04:26:17.125Z,96.27
2018-10-12T04:27:17.153Z,95.79
2018-10-12T04:28:17.125Z,95.70
2018-10-12T04:29:17.121Z,95.61
2018-10-12T04:30:17.125Z,96.56
2018-10-12T04:31:17.122Z,96.18
2018-10-12T04:32:17.144Z,97.52
2018-10-12T04:33:17.124Z,97.42
2018-10-12T04:34:17.121Z,97.42
2018-10-12T04:35:17.131Z,97.33
2018-10-12T04:36:17.130Z,97.90
2018-10-12T04:37:17.153Z,97.61
2018-10-12T04:38:17.112Z,99.72
2018-10-12T04:39:17.123Z,96.75
2018-10-12T04:40:17.126Z,98.57
2018-10-12T04:41:17.127Z,99.99
2018-10-12T04:42:17.154Z,99.99
2018-10-12T04:43:17.124Z,99.99
2018-10-12T04:44:17.122Z,99.99
2018-10-12T04:45:17.122Z,99.99
2018-10-12T04:46:17.123Z,98.24
2018-10-12T04:47:17.202Z,99.52
2018-10-12T04:48:17.119Z,97.42
2018-10-12T04:49:17.124Z,98.95
2018-10-12T04:50:17.124Z,99.38
2018-10-12T04:51:17.122Z,98.71
2018-10-12T04:52:17.152Z,99.38
2018-10-12T04:53:17.120Z,99.48
2018-10-12T04:54:17.127Z,99.10
2018-10-12T04:55:17.124Z,98.43
2018-10-12T04:56:17.121Z,99.38
2018-10-12T04:57:17.152Z,98.04
2018-10-12T04:58:17.120Z,96.84
2018-10-12T04:59:17.120Z,97.04
2018-10-12T05:00:17.121Z,97.71
2018-10-12T05:01:17.161Z,97.71
2018-10-12T05:02:17.155Z,99.24
2018-10-12T05:03:17.123Z,99.99
2018-10-12T05:04:17.121Z,99.99
2018-10-12T05:05:17.122Z,99.99
2018-10-12T05:06:17.120Z,99.99
2018-10-12T05:07:17.149Z,99.99
2018-10-12T05:08:17.119Z,99.99
2018-10-12T05:09:17.123Z,99.99
2018-10-12T05:10:17.118Z,99.99
2018-10-12T05:11:17.117Z,99.99
2018-10-12T05:12:17.144Z,99.99
2018-10-12T05:13:17.122Z,99.99
2018-10-12T05:14:17.119Z,99.99
2018-10-12T05:15:17.119Z,99.99
2018-10-12T05:16:17.121Z,99.99
2018-10-12T05:17:17.149Z,99.99
2018-10-12T05:18:17.115Z,99.99
2018-10-12T05:19:17.119Z,99.99
2018-10-12T05:20:17.119Z,99.99
2018-10-12T05:21:17.150Z,99.99
2018-10-12T05:22:17.155Z,99.99
2018-10-12T05:23:17.115Z,99.99
2018-10-12T05:24:17.117Z,99.99
2018-10-12T05:25:17.120Z,99.99
2018-10-12T05:26:17.141Z,99.99
2018-10-12T05:27:17.113Z,99.99
2018-10-12T05:28:17.118Z,99.99
2018-10-12T05:29:17.119Z,99.99
2018-10-12T05:30:17.181Z,99.99
2018-10-12T05:31:17.140Z,99.99
2018-10-12T05:32:17.113Z,99.99
2018-10-12T05:33:17.117Z,99.99
2018-10-12T05:34:17.113Z,99.99
2018-10-12T05:35:17.113Z,99.99
2018-10-12T05:36:17.142Z,99.99
2018-10-12T05:37:17.109Z,99.99
2018-10-12T05:38:17.107Z,99.99
2018-10-12T05:39:17.114Z,99.99
2018-10-12T05:40:17.105Z,99.99
2018-10-12T05:41:17.130Z,99.99
2018-10-12T05:42:17.102Z,99.99
2018-10-12T05:43:17.181Z,99.99
2018-10-12T05:44:17.109Z,99.99
2018-10-12T05:45:17.103Z,99.99
2018-10-12T05:46:17.134Z,99.99
2018-10-12T05:47:17.141Z,99.99
2018-10-12T05:48:17.103Z,99.99
2018-10-12T05:49:17.104Z,99.99
2018-10-12T05:50:17.109Z,99.99
2018-10-12T05:51:17.104Z,99.99
2018-10-12T05:52:17.130Z,99.99
2018-10-12T05:53:17.103Z,99.99
2018-10-12T05:54:17.103Z,99.99
2018-10-12T05:55:17.100Z,99.99
2018-10-12T05:56:17.132Z,99.99
2018-10-12T05:57:17.103Z,99.99
2018-10-12T05:58:17.128Z,99.99
2018-10-12T05:59:17.096Z,99.99
2018-10-12T06:00:17.098Z,99.99
2018-10-12T06:01:17.166Z,99.99
2018-10-12T06:02:17.139Z,99.99
2018-10-12T06:03:17.098Z,99.99
2018-10-12T06:04:17.102Z,99.99
2018-10-12T06:05:17.096Z,99.99
2018-10-12T06:06:17.089Z,99.99
2018-10-12T06:07:17.129Z,99.99
2018-10-12T06:08:17.097Z,99.99
2018-10-12T06:09:17.171Z,99.99
2018-10-12T06:10:17.095Z,99.99
2018-10-12T06:11:17.124Z,99.99
2018-10-12T06:12:17.123Z,99.99
2018-10-12T06:13:17.094Z,99.99
2018-10-12T06:14:17.091Z,99.99
2018-10-12T06:15:17.105Z,99.99
2018-10-12T06:16:17.094Z,99.99
2018-10-12T06:17:17.118Z,99.99
2018-10-12T06:18:17.090Z,99.99
2018-10-12T06:19:17.094Z,99.99
2018-10-12T06:20:17.091Z,99.99
2018-10-12T06:21:17.122Z,99.99
2018-10-12T06:22:17.088Z,99.99
2018-10-12T06:23:17.088Z,99.99
2018-10-12T06:24:17.087Z,99.99
2018-10-12T06:25:17.083Z,99.99
2018-10-12T06:26:17.112Z,99.99
2018-10-12T06:27:17.085Z,99.99
2018-10-12T06:28:17.080Z,99.99
2018-10-12T06:29:17.084Z,99.99
2018-10-12T06:30:17.079Z,99.99
2018-10-12T06:31:17.108Z,99.99
2018-10-12T06:32:17.077Z,99.63
2018-10-12T06:33:17.079Z,98.47
2018-10-12T06:34:17.091Z,96.32
2018-10-12T06:35:17.081Z,95.12
2018-10-12T06:36:17.101Z,94.02
2018-10-12T06:37:17.083Z,93.68
2018-10-12T06:38:17.078Z,91.71
2018-10-12T06:39:17.074Z,90.46
2018-10-12T06:40:17.079Z,88.39
2018-10-12T06:41:17.144Z,87.53
2018-10-12T06:42:17.081Z,88.49
2018-10-12T06:43:17.119Z,87.53
2018-10-12T06:44:17.084Z,86.85
2018-10-12T06:45:17.084Z,86.52
2018-10-12T06:46:17.149Z,86.76
2018-10-12T06:47:17.099Z,87.10
2018-10-12T06:48:17.083Z,87.01
2018-10-12T06:49:17.084Z,85.99
2018-10-12T06:50:17.095Z,85.71
2018-10-12T06:51:17.127Z,85.61
2018-10-12T06:52:17.103Z,85.32
2018-10-12T06:53:17.101Z,84.45
2018-10-12T06:54:17.103Z,84.11
2018-10-12T06:55:17.100Z,83.83
2018-10-12T06:56:17.141Z,83.48
2018-10-12T06:57:17.113Z,81.99
2018-10-12T06:58:17.120Z,82.04
2018-10-12T06:59:17.115Z,81.94
2018-10-12T07:00:17.120Z,82.19
2018-10-12T07:01:17.148Z,82.90
2018-10-12T07:02:17.120Z,82.67
2018-10-12T07:03:17.131Z,83.06
2018-10-12T07:04:17.133Z,82.81
2018-10-12T07:05:17.129Z,82.71
2018-10-12T07:06:17.168Z,82.81
2018-10-12T07:07:17.145Z,82.32
2018-10-12T07:08:17.159Z,82.32
2018-10-12T07:09:17.157Z,82.52
2018-10-12T07:10:17.159Z,82.61
2018-10-12T07:11:17.192Z,82.32
2018-10-12T07:12:17.163Z,81.84
2018-10-12T07:13:17.176Z,81.70
2018-10-12T07:14:17.174Z,81.12
2018-10-12T07:15:17.180Z,81.02
2018-10-12T07:16:17.211Z,81.12
2018-10-12T07:17:17.196Z,81.27
2018-10-12T07:18:17.190Z,81.94
2018-10-12T07:19:17.202Z,81.65
2018-10-12T07:20:17.204Z,82.46
2018-10-12T07:21:17.244Z,81.06
2018-10-12T07:22:17.239Z,80.48
2018-10-12T07:23:17.220Z,80.29
2018-10-12T07:24:17.228Z,78.50
2018-10-12T07:25:17.242Z,78.40
2018-10-12T07:26:17.249Z,77.63
2018-10-12T07:27:17.265Z,78.31
2018-10-12T07:28:17.241Z,77.48
2018-10-12T07:29:17.257Z,78.59
2018-10-12T07:30:17.256Z,78.11
2018-10-12T07:31:17.362Z,78.50
2018-10-12T07:32:17.316Z,78.44
2018-10-12T07:33:17.281Z,77.61
2018-10-12T07:34:17.289Z,76.45
2018-10-12T07:35:17.294Z,76.51
2018-10-12T07:36:17.330Z,75.49
2018-10-12T07:37:17.443Z,75.36
2018-10-12T07:38:17.314Z,75.55
2018-10-12T07:39:17.322Z,75.53
2018-10-12T07:40:17.330Z,74.79
2018-10-12T07:41:17.337Z,74.12
2018-10-12T07:42:17.388Z,74.27
2018-10-12T07:43:17.355Z,74.57
2018-10-12T07:44:17.363Z,74.47
2018-10-12T07:45:17.373Z,74.85
2018-10-12T07:46:17.379Z,74.66
2018-10-12T07:47:17.463Z,74.85
2018-10-12T07:48:17.475Z,75.34
2018-10-12T07:49:17.404Z,75.14
2018-10-12T07:50:17.410Z,74.41
2018-10-12T07:51:17.421Z,73.44
2018-10-12T07:52:17.457Z,72.19
2018-10-12T07:53:17.484Z,74.60
2018-10-12T07:54:17.445Z,73.21
2018-10-12T07:55:17.456Z,75.85
2018-10-12T07:56:17.465Z,74.79
2018-10-12T07:57:17.504Z,74.27
2018-10-12T07:58:17.485Z,73.89
2018-10-12T07:59:17.496Z,74.14
2018-10-12T08:00:17.607Z,74.62
2018-10-12T08:01:17.544Z,74.62
2018-10-12T08:02:17.523Z,74.18
2018-10-12T08:03:17.533Z,74.79
2018-10-12T08:04:17.543Z,73.50
2018-10-12T08:05:17.550Z,74.08
2018-10-12T08:06:17.631Z,72.67
2018-10-12T08:07:17.571Z,71.39
2018-10-12T08:08:17.582Z,69.65
2018-10-12T08:09:17.594Z,70.20
2018-10-12T08:10:17.602Z,71.26
2018-10-12T08:11:17.639Z,70.58
2018-10-12T08:12:17.771Z,70.52
2018-10-12T08:13:17.636Z,70.04
2018-10-12T08:14:17.729Z,69.36
2018-10-12T08:15:17.968Z,69.26
2018-10-12T08:16:17.696Z,70.00
2018-10-12T08:17:17.678Z,69.98
2018-10-12T08:18:17.687Z,68.75
2018-10-12T08:19:17.698Z,67.37
2018-10-12T08:20:17.748Z,65.72
2018-10-12T08:21:17.750Z,65.01
2018-10-12T08:22:17.732Z,63.46
2018-10-12T08:23:17.750Z,63.34
2018-10-12T08:24:17.757Z,64.01
2018-10-12T08:25:17.767Z,63.34
2018-10-12T08:26:17.814Z,63.75
2018-10-12T08:27:17.793Z,62.91
2018-10-12T08:28:17.809Z,62.95
2018-10-12T08:29:17.821Z,64.56
2018-10-12T08:30:17.823Z,64.56
2018-10-12T08:31:17.880Z,63.46
2018-10-12T08:32:17.859Z,61.98
2018-10-12T08:33:17.881Z,60.16
2018-10-12T08:34:17.881Z,59.87
2018-10-12T08:35:17.894Z,59.70
2018-10-12T08:36:17.949Z,59.71
2018-10-12T08:37:17.922Z,61.43
2018-10-12T08:38:17.935Z,61.98
2018-10-12T08:39:17.949Z,64.37
2018-10-12T08:40:17.965Z,63.24
2018-10-12T08:41:18.025Z,63.07
2018-10-12T08:42:18.019Z,62.52
2018-10-12T08:43:18.009Z,61.04
2018-10-12T08:44:18.029Z,59.84
2018-10-12T08:45:18.031Z,60.09
2018-10-12T08:46:18.078Z,59.54
2018-10-12T08:47:18.061Z,58.47
2018-10-12T08:48:18.073Z,58.25
2018-10-12T08:49:18.092Z,59.09
2018-10-12T08:50:18.122Z,59.48
2018-10-12T08:51:18.149Z,59.61
2018-10-12T08:52:18.138Z,59.74
2018-10-12T08:53:18.151Z,59.00
2018-10-12T08:54:18.162Z,58.97
2018-10-12T08:55:18.218Z,58.97
2018-10-12T08:56:18.219Z,58.61
2018-10-12T08:57:18.210Z,58.87
2018-10-12T08:58:18.218Z,58.45
2018-10-12T08:59:18.242Z,58.94
2018-10-12T09:00:18.253Z,60.17
2018-10-12T09:01:18.299Z,59.71
2018-10-12T09:02:18.288Z,59.00
2018-10-12T09:03:18.303Z,57.76
2018-10-12T09:04:18.327Z,58.70
2018-10-12T09:05:18.325Z,58.44
2018-10-12T09:06:18.377Z,57.57
2018-10-12T09:07:18.363Z,56.98
2018-10-12T09:08:18.379Z,56.40
2018-10-12T09:09:18.389Z,57.47
2018-10-12T09:10:18.411Z,57.80
2018-10-12T09:11:18.452Z,58.77
2018-10-12T09:12:18.437Z,58.41
2018-10-12T09:13:18.458Z,58.05
2018-10-12T09:14:18.471Z,57.57
2018-10-12T09:15:18.516Z,57.18
2018-10-12T09:16:18.576Z,58.67
2018-10-12T09:17:18.541Z,58.80
2018-10-12T09:18:18.537Z,58.25
2018-10-12T09:19:18.552Z,58.34
2018-10-12T09:20:18.721Z,58.05
2018-10-12T09:21:18.585Z,57.44
2018-10-12T09:22:18.602Z,58.94
2018-10-12T09:23:18.617Z,59.88
2018-10-12T09:24:18.635Z,60.82
2018-10-12T09:25:18.678Z,60.65
2018-10-12T09:26:18.655Z,60.30
2018-10-12T09:27:18.770Z,59.28
2018-10-12T09:28:18.698Z,58.34
2018-10-12T09:29:18.711Z,57.67
2018-10-12T09:30:18.806Z,57.18
2018-10-12T09:31:18.768Z,57.87
2018-10-12T09:32:19.355Z,59.69
2018-10-12T09:33:18.779Z,60.85
2018-10-12T09:34:25.692Z,60.94
2018-10-12T09:35:20.415Z,61.07
2018-10-12T09:36:18.850Z,59.74
2018-10-12T09:37:20.005Z,58.34
2018-10-12T09:38:18.861Z,57.18
2018-10-12T09:39:20.880Z,57.67
2018-10-12T09:40:18.898Z,57.21
2018-10-12T09:41:18.936Z,56.68
2018-10-12T09:42:20.669Z,54.96
2018-10-12T09:43:18.968Z,54.30
2018-10-12T09:44:18.961Z,53.91
2018-10-12T09:45:19.007Z,52.77
2018-10-12T09:46:18.989Z,52.97
2018-10-12T09:47:19.009Z,52.60
2018-10-12T09:48:19.027Z,52.14
2018-10-12T09:49:19.074Z,51.92
2018-10-12T09:50:19.083Z,51.95
2018-10-12T09:51:19.111Z,52.17
2018-10-12T09:52:19.100Z,51.21
2018-10-12T09:53:20.367Z,50.02
2018-10-12T09:54:22.519Z,50.90
2018-10-12T09:55:19.177Z,50.43
2018-10-12T09:56:19.173Z,50.04
2018-10-12T09:57:20.227Z,49.85
2018-10-12T09:58:19.210Z,50.19
2018-10-12T09:59:19.228Z,50.95
2018-10-12T10:00:21.771Z,51.41
2018-10-12T10:01:19.290Z,52.16
2018-10-12T10:02:19.365Z,52.45
2018-10-12T10:03:19.310Z,53.14
2018-10-12T10:04:19.325Z,53.40
2018-10-12T10:05:19.370Z,53.96
2018-10-12T10:06:19.385Z,55.07
2018-10-12T10:07:19.380Z,56.26
2018-10-12T10:08:19.516Z,54.93
2018-10-12T10:09:19.420Z,52.94
2018-10-12T10:10:19.472Z,51.73
2018-10-12T10:11:21.019Z,50.97
2018-10-12T10:12:19.475Z,51.21
2018-10-12T10:13:20.294Z,52.55
2018-10-12T10:14:23.675Z,52.75
2018-10-12T10:15:20.564Z,53.79
2018-10-12T10:16:19.864Z,53.59
2018-10-12T10:17:28.739Z,52.67
2018-10-12T10:18:20.656Z,51.92
2018-10-12T10:19:19.974Z,51.95
2018-10-12T10:20:19.679Z,52.23
2018-10-12T10:21:19.653Z,53.91
2018-10-12T10:22:19.759Z,54.68
2018-10-12T10:23:19.686Z,54.83
2018-10-12T10:24:19.704Z,53.42
2018-10-12T10:25:19.750Z,51.99
2018-10-12T10:26:19.742Z,51.56
2018-10-12T10:27:19.763Z,50.99
2018-10-12T10:28:19.790Z,50.24
2018-10-12T10:29:19.862Z,51.07
2018-10-12T10:30:19.840Z,51.55
2018-10-12T10:31:19.871Z,53.06
2018-10-12T10:32:20.043Z,54.13
2018-10-12T10:33:19.880Z,54.90
2018-10-12T10:34:19.896Z,53.64
2018-10-12T10:35:19.949Z,55.75
2018-10-12T10:36:19.935Z,54.97
2018-10-12T10:37:19.959Z,54.64
2018-10-12T10:38:19.972Z,53.52
2018-10-12T10:39:19.990Z,51.97
2018-10-12T10:40:20.046Z,49.68
2018-10-12T10:41:20.034Z,48.85
2018-10-12T10:42:20.054Z,51.04
2018-10-12T10:43:20.074Z,52.23
2018-10-12T10:44:20.131Z,52.69
2018-10-12T10:45:20.143Z,54.10
2018-10-12T10:46:20.216Z,54.85
2018-10-12T10:47:20.151Z,56.18
2018-10-12T10:48:20.174Z,55.75
2018-10-12T10:49:20.196Z,54.18
2018-10-12T10:50:20.239Z,52.94
2018-10-12T10:51:20.231Z,52.53
2018-10-12T10:52:21.967Z,53.57
2018-10-12T10:53:20.276Z,53.18
2018-10-12T10:54:20.294Z,52.36
2018-10-12T10:55:20.344Z,52.06
2018-10-12T10:56:20.340Z,52.53
2018-10-12T10:57:20.354Z,53.16
2018-10-12T10:58:20.373Z,53.89
2018-10-12T10:59:20.394Z,52.58
2018-10-12T11:00:20.454Z,50.80
2018-10-12T11:01:20.441Z,48.90
2018-10-12T11:02:20.462Z,48.58
2018-10-12T11:03:20.484Z,50.82
2018-10-12T11:04:20.506Z,52.53
2018-10-12T11:05:20.550Z,54.15
2018-10-12T11:06:20.661Z,55.49
2018-10-12T11:07:20.573Z,55.58
2018-10-12T11:08:20.588Z,55.04
2018-10-12T11:09:20.610Z,54.88
2018-10-12T11:10:20.652Z,54.05
2018-10-12T11:11:20.647Z,52.97
2018-10-12T11:12:20.749Z,51.09
2018-10-12T11:13:20.718Z,50.12
2018-10-12T11:14:20.724Z,50.46
2018-10-12T11:15:20.765Z,51.09
2018-10-12T11:16:20.752Z,51.41
2018-10-12T11:17:20.779Z,51.29
2018-10-12T11:18:20.797Z,52.01
2018-10-12T11:19:20.876Z,52.98
2018-10-12T11:20:20.869Z,54.68
2018-10-12T11:21:20.851Z,56.25
2018-10-12T11:22:20.881Z,57.51
2018-10-12T11:23:20.899Z,56.60
2018-10-12T11:24:20.968Z,54.90
2018-10-12T11:25:20.967Z,54.39
2018-10-12T11:26:20.993Z,54.03
2018-10-12T11:27:20.979Z,54.64
2018-10-12T11:28:20.996Z,54.30
2018-10-12T11:29:21.025Z,52.31
2018-10-12T11:30:21.064Z,51.29
2018-10-12T11:31:21.056Z,49.76
2018-10-12T11:32:21.073Z,50.65
2018-10-12T11:33:21.107Z,53.83
2018-10-12T11:34:21.117Z,54.78
2018-10-12T11:35:21.167Z,55.53
2018-10-12T11:36:21.159Z,56.64
2018-10-12T11:37:21.176Z,57.00
2018-10-12T11:38:21.207Z,57.97
2018-10-12T11:39:21.219Z,57.84
2018-10-12T11:40:21.262Z,57.39
2018-10-12T11:41:21.251Z,57.17
2018-10-12T11:42:21.265Z,57.91
2018-10-12T11:43:21.279Z,58.49
2018-10-12T11:44:21.291Z,58.52
2018-10-12T11:45:21.406Z,58.39
2018-10-12T11:46:21.329Z,56.30
2018-10-12T11:47:21.343Z,54.58
2018-10-12T11:48:21.359Z,54.22
2018-10-12T11:49:21.378Z,53.20
2018-10-12T11:50:21.426Z,51.48
2018-10-12T11:51:21.409Z,51.43
2018-10-12T11:52:21.434Z,49.73
2018-10-12T11:53:21.441Z,48.71
2018-10-12T11:54:21.482Z,48.14
2018-10-12T11:55:21.469Z,47.27
2018-10-12T11:56:21.515Z,47.11
2018-10-12T11:57:21.522Z,47.11
2018-10-12T11:58:21.526Z,47.02
2018-10-12T11:59:21.544Z,46.53
2018-10-12T12:00:21.595Z,45.94
2018-10-12T12:01:21.583Z,46.60
2018-10-12T12:02:21.646Z,46.88
2018-10-12T12:03:21.619Z,46.97
2018-10-12T12:04:21.640Z,47.63
2018-10-12T12:05:21.679Z,47.46
2018-10-12T12:06:21.680Z,46.39
2018-10-12T12:07:21.773Z,46.19
2018-10-12T12:08:21.718Z,47.24
2018-10-12T12:09:21.731Z,47.71
2018-10-12T12:10:21.781Z,48.07
2018-10-12T12:11:21.773Z,48.66
2018-10-12T12:12:21.785Z,49.17
2018-10-12T12:13:21.855Z,49.49
2018-10-12T12:14:21.834Z,49.10
2018-10-12T12:15:21.878Z,51.26
2018-10-12T12:16:21.875Z,51.92
2018-10-12T12:17:21.891Z,52.19
2018-10-12T12:18:21.912Z,52.40
2018-10-12T12:19:21.994Z,51.97
2018-10-12T12:20:21.988Z,51.84
2018-10-12T12:21:21.972Z,52.33
2018-10-12T12:22:21.993Z,52.89
2018-10-12T12:23:22.013Z,52.45
2018-10-12T12:24:22.025Z,52.45
2018-10-12T12:25:22.080Z,52.45
2018-10-12T12:26:22.073Z,53.40
2018-10-12T12:27:22.090Z,52.40
2018-10-12T12:28:22.108Z,53.47
2018-10-12T12:29:22.132Z,54.64
2018-10-12T12:30:22.182Z,53.06
2018-10-12T12:31:22.173Z,53.91
2018-10-12T12:32:22.188Z,53.64
2018-10-12T12:33:22.208Z,53.64
2018-10-12T12:34:22.229Z,52.69
2018-10-12T12:35:22.484Z,52.69
2018-10-12T12:36:22.299Z,53.47
2018-10-12T12:37:22.288Z,53.83
2018-10-12T12:38:22.307Z,52.50
2018-10-12T12:39:22.323Z,51.65
2018-10-12T12:40:22.376Z,52.16
2018-10-12T12:41:22.371Z,51.39
2018-10-12T12:42:22.381Z,53.01
2018-10-12T12:43:22.401Z,52.36
2018-10-12T12:44:22.420Z,51.70
2018-10-12T12:45:22.465Z,52.23
2018-10-12T12:46:22.458Z,51.92
2018-10-12T12:47:22.608Z,52.98
2018-10-12T12:48:22.805Z,53.08
2018-10-12T12:49:23.043Z,52.75
2018-10-12T12:50:22.563Z,51.41
2018-10-12T12:51:22.552Z,51.82
2018-10-12T12:52:22.573Z,50.21